Timmins/Victor M. Power
CYTS : rendu visible

Aérodrome :











RETROUVEZ-NOUS SUR...

 
LOGIN :

S'inscrire | Disclaimer

   EN    FR    IT 

 









Légende :    VFR   VFR Marginal   IFR   IFR Intensif   IFR Très Intensif
Visi : 
Plafond : 
>= 8 km
>= 3000ft
5 à 8 km
1000 à 3000 ft
1500m à 5 km
500 à 1000 ft
800 à 1500m
200 à 500 ft
< 800m
< 200 ft
Symboles :   Orages  Brouillard  Fortes neiges  Fortes précipitations  Vent > 20 kt






- Altitude de l'aérodrome : 967 ft
- Code IATA : YTS


CYTS - Timmins/Victor M. Power

DERNIER METAR :
  • 222300Z 22004KT 180V260 15SM FEW018 SCT032 BKN070 BKN150 BKN240 M08/M10 A2982 RMK SC1SC2AC2AC1CI1 SLP122

METARs EXPIRÉS :
  • 222200Z 21005KT 180V250 15SM FEW012 BKN070 BKN240 M08/M10 A2983 RMK SF2AC4CI1 SLP126
  • 222100Z 22006KT 190V250 15SM FEW012 FEW160 FEW240 M08/M10 A2984 RMK SF1AC1CI1 SF TR CI TR SLP128

TAF TAF CYTS
Valide du 22 à 20h jusqu'au 23 à 08h UTC


221946Z 2220/2308 25008KT P6SM FEW020 SCT100
TEMPO 2221/2303 P6SM -SN BKN020
BECMG 2222/2224 22008KT
FM230300 22008KT P6SM BKN020
TEMPO 2303/2308 BKN025 RMK NXT FCST BY 230200Z



MET'MAP, la Météo Aéronautique d'un coup d'oeil ! - Copyright ORBIFLY Décembre 2007 - Disclaimer

ORBIFLY MET'MAP TEAM :

Programmation & Développement : Alexandra Zaïnal
Conception & Développement : Baudouin d'Aumeries
Co-Programmation & Développement : Marc-Olivier Méhu
Soutien technique & logistique : Manuel Goepfert

Contact : metmap@orbifly.com




SOURCES & CREDITS :

   NOAA       Earth
Advisory